Time;durP1;ratioP1;P1;durP2;ratioP2;P2;SDS_P1;SDS_P2;PMS_P1;PMS_P2;Temp;Humidity;BMP_temperature;BMP_pressure;BME280_temperature;BME280_humidity;BME280_pressure;Samples;Min_cycle;Max_cycle;Signal;HPM_P1;HPM_P2
2021/08/26 00:09:50;;;;;;;16.33;6.82;;;11.50;98.00;;;;;;5073937;28;20090;-72
2021/08/26 00:12:56;;;;;;;15.38;6.93;;;11.40;98.00;;;;;;5073791;28;20406;-72
2021/08/26 00:15:25;;;;;;;13.55;6.70;;;11.50;98.00;;;;;;5058330;28;20040;-72
2021/08/26 00:17:51;;;;;;;12.90;6.85;;;11.50;98.00;;;;;;5074785;28;20031;-73
2021/08/26 00:20:16;;;;;;;12.48;6.80;;;11.50;98.00;;;;;;5072798;28;20119;-72
2021/08/26 00:22:42;;;;;;;19.05;7.22;;;11.50;98.00;;;;;;5071873;28;20074;-73
2021/08/26 00:25:08;;;;;;;14.38;7.50;;;11.50;98.00;;;;;;5066056;28;20043;-73
2021/08/26 00:27:35;;;;;;;16.52;7.22;;;11.60;98.00;;;;;;5066921;28;20029;-73
2021/08/26 00:30:01;;;;;;;15.82;6.97;;;11.60;98.00;;;;;;5075463;28;20025;-73
2021/08/26 00:46:46;;;;;;;15.77;6.53;;;11.60;98.00;;;;;;5042185;28;20040;-73
2021/08/26 00:52:37;;;;;;;9.95;5.85;;;11.60;98.00;;;;;;5038654;28;20095;-72
2021/08/26 00:55:03;;;;;;;12.43;7.03;;;11.50;98.00;;;;;;5051064;28;20021;-72
2021/08/26 00:57:28;;;;;;;12.85;7.18;;;11.50;98.00;;;;;;5051713;28;20055;-73
2021/08/26 00:59:55;;;;;;;13.45;6.97;;;11.40;98.00;;;;;;5050304;28;20029;-74
2021/08/26 01:02:32;;;;;;;13.02;6.57;;;11.40;98.00;;;;;;5057384;28;20029;-73
2021/08/26 01:05:08;;;;;;;13.60;7.00;;;11.40;98.00;;;;;;5057820;28;20088;-73
2021/08/26 01:07:37;;;;;;;11.30;6.35;;;11.30;98.00;;;;;;5057346;28;20043;-72
2021/08/26 01:24:21;;;;;;;13.85;7.95;;;10.80;98.00;;;;;;5044301;28;20155;-72
2021/08/26 01:30:16;;;;;;;16.42;7.88;;;10.70;98.00;;;;;;5055441;28;20351;-73
2021/08/26 01:32:44;;;;;;;14.43;7.40;;;10.70;98.00;;;;;;5038233;28;20039;-73
2021/08/26 01:35:10;;;;;;;14.52;7.53;;;10.60;98.00;;;;;;5052066;28;20436;-73
2021/08/26 01:37:40;;;;;;;14.38;8.25;;;10.60;98.00;;;;;;5056300;28;20027;-73
2021/08/26 01:40:07;;;;;;;12.70;7.70;;;10.50;98.00;;;;;;5055759;28;20051;-73
2021/08/26 01:42:33;;;;;;;14.80;7.75;;;10.40;98.00;;;;;;5038006;28;20030;-73
2021/08/26 01:44:59;;;;;;;13.63;7.57;;;10.40;98.00;;;;;;5048152;28;20025;-73
2021/08/26 01:47:25;;;;;;;13.93;7.78;;;10.20;98.00;;;;;;5063752;28;20056;-73
2021/08/26 02:03:19;;;;;;;21.90;8.52;;;10.10;98.00;;;;;;5074742;28;20333;-73
2021/08/26 02:05:50;;;;;;;13.02;7.72;;;10.10;98.00;;;;;;5075541;28;20029;-73
2021/08/26 02:08:16;;;;;;;14.95;7.97;;;10.10;98.00;;;;;;5066923;28;20027;-73
2021/08/26 02:10:42;;;;;;;15.80;8.25;;;10.00;98.00;;;;;;5075338;28;20402;-73
2021/08/26 02:13:07;;;;;;;16.48;7.70;;;9.90;98.00;;;;;;5077095;28;20036;-73
2021/08/26 02:15:33;;;;;;;14.15;8.30;;;9.90;98.00;;;;;;5076041;28;20024;-73
2021/08/26 02:17:58;;;;;;;14.88;8.30;;;9.80;98.00;;;;;;5073626;28;20024;-72
2021/08/26 02:20:24;;;;;;;13.73;8.48;;;9.90;98.00;;;;;;5077063;28;20033;-73
2021/08/26 02:22:50;;;;;;;15.10;7.53;;;9.90;98.00;;;;;;5076790;28;20020;-73
2021/08/26 02:25:16;;;;;;;18.25;8.98;;;9.80;98.00;;;;;;5075098;28;20028;-73
2021/08/26 02:42:03;;;;;;;15.70;8.57;;;9.70;98.00;;;;;;5058908;28;20094;-73
2021/08/26 02:44:34;;;;;;;18.70;8.90;;;9.70;98.00;;;;;;5076148;28;20056;-73
2021/08/26 02:47:00;;;;;;;18.33;8.75;;;9.70;98.00;;;;;;5075723;28;20036;-74
2021/08/26 02:49:25;;;;;;;14.35;9.02;;;9.70;98.00;;;;;;5075851;28;20337;-73
2021/08/26 02:51:51;;;;;;;17.25;8.65;;;9.70;98.00;;;;;;5074486;28;20027;-73
2021/08/26 02:54:17;;;;;;;17.00;8.73;;;9.70;98.00;;;;;;5070704;28;20028;-72
2021/08/26 02:56:42;;;;;;;20.25;10.20;;;9.60;98.00;;;;;;5076335;28;20443;-73
2021/08/26 02:59:08;;;;;;;15.18;8.93;;;9.70;98.00;;;;;;5076317;28;20383;-73
2021/08/26 03:01:34;;;;;;;15.00;8.25;;;9.70;98.00;;;;;;5070911;28;20032;-73
2021/08/26 03:03:59;;;;;;;15.77;9.63;;;9.60;98.00;;;;;;5075356;28;20035;-73
2021/08/26 03:20:40;;;;;;;19.65;9.20;;;9.50;98.00;;;;;;5076172;28;20427;-73
2021/08/26 03:26:28;;;;;;;15.40;8.98;;;9.40;98.00;;;;;;5075371;28;20039;-73
2021/08/26 03:28:54;;;;;;;18.65;9.50;;;9.50;98.00;;;;;;5074970;28;20723;-73
2021/08/26 03:31:19;;;;;;;19.20;9.88;;;9.40;98.00;;;;;;5074824;28;20299;-73
2021/08/26 03:33:45;;;;;;;18.20;9.57;;;9.50;98.00;;;;;;5075826;28;20024;-73
2021/08/26 03:36:11;;;;;;;16.20;9.43;;;9.50;98.00;;;;;;5074885;28;20077;-73
2021/08/26 03:38:36;;;;;;;16.90;8.88;;;9.50;98.00;;;;;;5057626;28;20021;-72
2021/08/26 03:41:02;;;;;;;17.83;11.20;;;9.50;98.00;;;;;;5067263;28;20034;-73
2021/08/26 03:43:28;;;;;;;12.93;7.78;;;9.60;98.00;;;;;;5075909;28;20031;-73
2021/08/26 03:45:53;;;;;;;16.38;8.93;;;9.60;98.00;;;;;;5074637;28;20060;-72
2021/08/26 04:05:57;;;;;;;18.98;9.95;;;9.70;98.00;;;;;;5077241;28;20056;-74
2021/08/26 04:08:23;;;;;;;15.23;8.57;;;9.70;98.00;;;;;;5067647;28;20029;-73
2021/08/26 04:10:48;;;;;;;13.77;8.98;;;9.80;98.00;;;;;;5070113;28;20028;-74
2021/08/26 04:13:14;;;;;;;21.83;10.05;;;9.80;98.00;;;;;;5079236;28;20104;-72
2021/08/26 04:15:40;;;;;;;17.73;9.00;;;9.90;98.00;;;;;;5078127;28;20044;-73
2021/08/26 04:18:05;;;;;;;15.18;8.57;;;9.80;98.00;;;;;;5077766;28;20020;-73
2021/08/26 04:20:31;;;;;;;15.52;8.48;;;9.80;98.00;;;;;;5063107;28;20058;-73
2021/08/26 04:22:57;;;;;;;18.00;9.05;;;9.80;98.00;;;;;;5068930;28;20025;-73
2021/08/26 04:25:22;;;;;;;17.17;9.30;;;9.70;98.00;;;;;;5078012;28;20097;-73
2021/08/26 04:41:56;;;;;;;16.75;9.02;;;9.80;98.00;;;;;;5073746;28;20447;-73
2021/08/26 04:44:31;;;;;;;13.63;8.50;;;9.80;98.00;;;;;;5074559;28;20082;-73
2021/08/26 04:46:56;;;;;;;13.18;8.23;;;9.70;98.00;;;;;;5078579;28;20028;-73
2021/08/26 04:49:22;;;;;;;14.82;9.02;;;9.60;98.00;;;;;;5077450;28;20078;-73
2021/08/26 04:51:48;;;;;;;18.95;9.82;;;9.70;98.00;;;;;;5078136;28;20111;-73
2021/08/26 04:54:14;;;;;;;17.35;9.60;;;9.80;98.00;;;;;;5069991;28;20127;-73
2021/08/26 04:56:42;;;;;;;17.20;9.23;;;9.70;98.00;;;;;;5067587;28;20119;-73
2021/08/26 04:59:08;;;;;;;15.68;8.50;;;9.70;98.00;;;;;;5058883;28;20101;-73
2021/08/26 05:01:33;;;;;;;14.10;8.65;;;9.70;98.00;;;;;;5058717;28;20120;-73
2021/08/26 05:04:00;;;;;;;14.90;7.78;;;9.80;98.00;;;;;;5058730;28;20029;-73
2021/08/26 05:06:26;;;;;;;14.07;8.55;;;9.90;98.00;;;;;;5070319;28;20025;-73
2021/08/26 05:26:32;;;;;;;11.98;7.93;;;10.70;98.00;;;;;;5070026;28;20026;-73
2021/08/26 05:28:57;;;;;;;13.15;7.35;;;10.90;98.00;;;;;;5058573;28;20025;-73
2021/08/26 05:31:23;;;;;;;12.88;7.63;;;11.10;98.00;;;;;;5072573;28;20037;-73
2021/08/26 05:33:49;;;;;;;15.40;8.48;;;11.10;98.00;;;;;;5076355;28;20032;-73
2021/08/26 05:36:14;;;;;;;12.13;7.32;;;11.30;98.00;;;;;;5069832;28;20618;-73
2021/08/26 05:38:40;;;;;;;13.02;7.35;;;11.30;98.00;;;;;;5078067;28;20025;-73
2021/08/26 05:41:05;;;;;;;16.13;7.93;;;11.50;98.00;;;;;;5059844;28;20048;-73
2021/08/26 05:43:31;;;;;;;14.35;6.82;;;11.60;98.00;;;;;;5069739;28;20056;-73
2021/08/26 05:45:57;;;;;;;12.20;7.07;;;11.70;98.00;;;;;;5070203;28;20055;-73
2021/08/26 05:48:22;;;;;;;13.45;7.70;;;11.90;98.00;;;;;;5077054;28;20036;-73
2021/08/26 06:04:25;;;;;;;17.38;8.80;;;13.00;98.00;;;;;;5055245;28;20491;-73
2021/08/26 06:10:13;;;;;;;12.63;7.65;;;13.60;97.60;;;;;;5063969;28;20071;-73
2021/08/26 06:12:41;;;;;;;12.15;6.93;;;13.90;96.50;;;;;;5076919;28;20031;-73
2021/08/26 06:15:08;;;;;;;13.40;6.55;;;14.10;95.70;;;;;;5076952;28;20017;-73
2021/08/26 06:17:34;;;;;;;13.07;6.45;;;14.40;95.10;;;;;;5057169;28;20086;-73
2021/08/26 06:19:59;;;;;;;14.38;7.10;;;14.50;94.40;;;;;;5073277;28;20405;-74
2021/08/26 06:22:25;;;;;;;13.88;7.10;;;14.60;93.70;;;;;;5077182;28;20020;-73
2021/08/26 06:24:51;;;;;;;13.98;7.50;;;14.70;93.40;;;;;;5075422;28;20020;-73
2021/08/26 06:27:16;;;;;;;12.68;7.32;;;14.80;93.40;;;;;;5076504;28;20322;-72
2021/08/26 06:49:56;;;;;;;13.00;7.85;;;14.70;94.10;;;;;;5075251;28;20027;-74
2021/08/26 06:52:22;;;;;;;14.15;7.75;;;14.70;93.90;;;;;;5076571;28;20032;-73
2021/08/26 06:54:48;;;;;;;14.65;7.47;;;14.80;93.70;;;;;;5074607;28;20329;-74
2021/08/26 06:57:13;;;;;;;14.18;7.72;;;14.90;94.70;;;;;;5071906;28;20044;-73
2021/08/26 06:59:39;;;;;;;12.77;6.55;;;14.90;93.40;;;;;;5056525;28;20033;-74
2021/08/26 07:02:04;;;;;;;14.77;8.18;;;14.90;93.50;;;;;;5072827;28;20027;-73
2021/08/26 07:04:30;;;;;;;12.98;6.88;;;14.90;93.60;;;;;;5076070;28;20048;-74
2021/08/26 07:06:56;;;;;;;16.02;7.85;;;15.00;92.90;;;;;;5075682;28;20029;-73
2021/08/26 07:22:50;;;;;;;20.58;8.15;;;15.00;93.20;;;;;;5076334;28;20146;-73
2021/08/26 07:26:02;;;;;;;13.65;7.68;;;15.00;93.60;;;;;;5073885;28;20107;-74
2021/08/26 07:28:28;;;;;;;12.05;6.65;;;15.10;93.60;;;;;;5075241;28;20020;-73
2021/08/26 07:30:54;;;;;;;11.85;6.82;;;15.20;92.80;;;;;;5075940;28;20024;-73
2021/08/26 07:33:19;;;;;;;15.93;7.53;;;15.30;92.20;;;;;;5076123;28;20120;-73
2021/08/26 07:35:45;;;;;;;12.90;6.80;;;15.50;91.80;;;;;;5075492;28;20029;-73
2021/08/26 07:38:11;;;;;;;14.52;8.30;;;15.90;91.90;;;;;;5074907;28;20095;-73
2021/08/26 07:40:36;;;;;;;13.25;7.95;;;16.10;90.60;;;;;;5073194;28;20048;-73
2021/08/26 07:43:02;;;;;;;13.80;7.57;;;16.10;90.10;;;;;;5075792;28;20428;-73
2021/08/26 07:45:28;;;;;;;13.93;7.53;;;16.10;89.80;;;;;;5075590;28;20029;-73
2021/08/26 07:47:53;;;;;;;14.02;7.50;;;16.40;90.40;;;;;;5067130;28;20070;-73
2021/08/26 07:50:21;;;;;;;14.80;7.53;;;16.60;88.60;;;;;;5064960;28;20353;-73
2021/08/26 07:52:47;;;;;;;14.02;7.30;;;16.50;89.20;;;;;;5055501;28;20017;-73
2021/08/26 07:55:13;;;;;;;12.25;6.88;;;16.90;88.80;;;;;;5074163;28;20029;-73
2021/08/26 07:57:38;;;;;;;12.30;7.05;;;17.40;87.30;;;;;;5065432;28;20025;-72
2021/08/26 08:00:05;;;;;;;16.40;7.68;;;18.10;85.00;;;;;;5075460;28;20109;-73
2021/08/26 08:02:31;;;;;;;14.07;6.97;;;18.60;83.30;;;;;;5075687;28;20032;-73
2021/08/26 08:04:56;;;;;;;15.75;7.53;;;18.30;83.00;;;;;;5075533;28;20430;-73
2021/08/26 08:07:22;;;;;;;14.93;7.72;;;17.50;84.00;;;;;;5059419;28;20433;-73
2021/08/26 08:09:48;;;;;;;15.82;7.43;;;16.90;86.10;;;;;;5069688;28;20017;-73
2021/08/26 08:12:13;;;;;;;14.52;7.65;;;16.40;87.90;;;;;;5075315;28;20113;-73
2021/08/26 08:14:42;;;;;;;15.25;8.48;;;16.00;88.70;;;;;;5073306;28;20375;-73
2021/08/26 08:17:08;;;;;;;16.38;8.32;;;15.60;90.20;;;;;;5067133;28;20115;-73
2021/08/26 08:19:34;;;;;;;16.02;8.07;;;15.20;91.90;;;;;;5074229;28;20020;-73
2021/08/26 08:22:00;;;;;;;17.38;9.45;;;15.00;92.40;;;;;;5071758;28;20463;-73
2021/08/26 08:24:26;;;;;;;17.92;9.02;;;14.90;93.40;;;;;;5069732;28;20048;-73
2021/08/26 08:26:52;;;;;;;16.02;8.40;;;14.80;93.50;;;;;;5068777;28;20329;-73
2021/08/26 08:29:18;;;;;;;16.65;8.20;;;14.70;94.10;;;;;;5071408;28;20029;-73
2021/08/26 08:31:43;;;;;;;15.48;8.55;;;14.70;94.30;;;;;;5071546;28;20032;-73
2021/08/26 08:34:09;;;;;;;15.27;8.38;;;14.80;94.80;;;;;;5071909;28;20025;-73
2021/08/26 08:36:35;;;;;;;18.88;8.15;;;14.80;94.40;;;;;;5068802;28;21098;-73
2021/08/26 08:39:00;;;;;;;13.55;7.45;;;14.90;94.40;;;;;;5069602;28;20439;-73
2021/08/26 08:41:26;;;;;;;14.93;7.70;;;15.00;94.00;;;;;;5075244;28;20078;-73
2021/08/26 08:43:52;;;;;;;16.15;7.32;;;15.20;93.40;;;;;;5075294;28;20322;-72
2021/08/26 08:46:20;;;;;;;17.55;8.55;;;15.30;93.30;;;;;;5074578;28;20028;-73
2021/08/26 08:48:46;;;;;;;12.52;7.50;;;15.40;92.70;;;;;;5074360;28;20111;-73
2021/08/26 08:51:12;;;;;;;11.85;6.93;;;15.40;93.00;;;;;;5073799;28;20029;-73
2021/08/26 08:53:38;;;;;;;15.18;7.53;;;15.60;92.10;;;;;;5078034;28;20024;-73
2021/08/26 08:56:06;;;;;;;17.08;8.35;;;15.60;91.90;;;;;;5076786;28;20091;-73
2021/08/26 08:58:40;;;;;;;20.00;7.78;;;15.50;92.30;;;;;;5078953;28;20055;-73
2021/08/26 09:01:06;;;;;;;13.93;8.10;;;15.30;94.30;;;;;;5078813;28;20024;-73
2021/08/26 09:03:36;;;;;;;15.60;8.75;;;15.00;95.10;;;;;;5078684;28;20024;-73
2021/08/26 09:06:01;;;;;;;16.73;9.02;;;14.80;95.70;;;;;;5075911;28;20083;-73
2021/08/26 09:08:29;;;;;;;17.75;8.70;;;14.70;96.50;;;;;;5067321;28;20347;-73
2021/08/26 09:11:16;;;;;;;15.63;8.27;;;14.80;96.10;;;;;;5057302;28;20053;-73
2021/08/26 09:13:44;;;;;;;18.92;9.63;;;14.80;95.60;;;;;;5066198;28;20040;-73
2021/08/26 09:16:11;;;;;;;16.60;9.02;;;14.90;95.60;;;;;;5076506;28;20028;-73
2021/08/26 09:18:40;;;;;;;17.13;9.20;;;15.00;95.20;;;;;;5078528;28;20025;-73
2021/08/26 09:21:11;;;;;;;20.13;9.05;;;15.20;94.20;;;;;;5078192;28;20082;-73
2021/08/26 09:23:59;;;;;;;13.85;8.90;;;15.30;93.70;;;;;;5077965;28;20053;-73
2021/08/26 09:26:29;;;;;;;15.30;8.90;;;15.50;93.50;;;;;;5077532;28;20086;-73
2021/08/26 09:29:04;;;;;;;16.02;9.13;;;15.60;93.10;;;;;;5078330;28;20059;-73
2021/08/26 09:31:32;;;;;;;17.20;8.60;;;15.70;92.60;;;;;;5077979;28;20024;-72
2021/08/26 09:34:04;;;;;;;17.05;7.72;;;15.80;92.20;;;;;;5077577;28;20024;-72
2021/08/26 09:36:57;;;;;;;13.38;8.82;;;16.00;91.70;;;;;;5074948;28;20478;-72
2021/08/26 09:39:27;;;;;;;14.05;8.43;;;16.00;91.50;;;;;;5074720;28;20170;-72
2021/08/26 09:42:04;;;;;;;15.18;8.25;;;15.80;92.10;;;;;;5077184;28;20055;-73
2021/08/26 09:44:36;;;;;;;16.08;7.97;;;15.50;93.00;;;;;;5077971;28;20044;-73
2021/08/26 09:47:05;;;;;;;14.52;7.97;;;15.30;94.30;;;;;;5076960;28;20031;-73
2021/08/26 09:49:38;;;;;;;15.52;8.00;;;15.20;95.00;;;;;;5077482;28;20035;-73
2021/08/26 09:52:09;;;;;;;15.15;9.02;;;15.00;96.20;;;;;;5077463;28;20025;-73
2021/08/26 09:54:38;;;;;;;16.30;9.63;;;14.90;96.10;;;;;;5076469;28;20037;-73
2021/08/26 09:57:05;;;;;;;15.50;9.88;;;14.70;96.40;;;;;;5076960;28;20029;-73
2021/08/26 09:59:47;;;;;;;20.55;11.25;;;14.50;96.20;;;;;;5077764;28;20016;-73
2021/08/26 10:02:13;;;;;;;20.23;11.90;;;14.40;97.20;;;;;;5077352;28;20032;-73
2021/08/26 10:04:40;;;;;;;20.48;11.52;;;14.20;97.30;;;;;;5076425;28;20365;-73
2021/08/26 10:07:06;;;;;;;24.33;11.98;;;14.10;97.70;;;;;;5076741;28;20028;-73
2021/08/26 10:09:33;;;;;;;18.23;11.05;;;14.00;97.90;;;;;;5071178;28;20115;-73
2021/08/26 10:11:58;;;;;;;20.02;11.70;;;14.00;97.90;;;;;;5059578;28;20463;-73
2021/08/26 10:14:26;;;;;;;18.45;10.38;;;14.10;97.70;;;;;;5077172;28;20032;-73
2021/08/26 10:16:52;;;;;;;17.52;11.25;;;14.10;98.00;;;;;;5076471;28;20025;-73
2021/08/26 10:19:17;;;;;;;22.02;12.80;;;14.10;98.00;;;;;;5077085;28;20032;-73
2021/08/26 10:21:46;;;;;;;21.17;13.57;;;14.10;98.00;;;;;;5076522;28;20035;-73
2021/08/26 10:24:13;;;;;;;25.25;13.10;;;14.00;98.00;;;;;;5074279;28;20457;-73
2021/08/26 10:26:43;;;;;;;21.90;12.65;;;14.00;98.00;;;;;;5076595;28;20039;-73
2021/08/26 10:29:10;;;;;;;22.17;14.45;;;14.00;98.00;;;;;;5075972;28;20025;-73
2021/08/26 10:31:38;;;;;;;25.60;15.07;;;13.90;98.00;;;;;;5076677;28;20021;-73
2021/08/26 10:34:26;;;;;;;24.10;15.93;;;13.80;98.00;;;;;;5076140;28;20021;-73
2021/08/26 10:36:58;;;;;;;21.73;15.63;;;13.60;98.00;;;;;;5075222;28;20024;-73
2021/08/26 10:39:30;;;;;;;27.58;16.73;;;13.60;98.00;;;;;;5075718;28;20045;-73
2021/08/26 10:41:57;;;;;;;26.88;18.15;;;13.50;98.00;;;;;;5075863;28;20376;-72
2021/08/26 10:45:01;;;;;;;30.63;20.92;;;13.30;98.00;;;;;;5076387;28;20059;-73
2021/08/26 10:47:49;;;;;;;36.22;21.75;;;13.10;98.00;;;;;;5075416;28;20024;-73
2021/08/26 10:50:37;;;;;;;34.15;24.48;;;13.00;98.00;;;;;;5075461;28;20039;-73
2021/08/26 10:53:08;;;;;;;32.92;23.25;;;12.90;98.00;;;;;;5075113;28;20021;-73
2021/08/26 10:55:46;;;;;;;36.17;24.83;;;12.90;98.00;;;;;;5075296;28;20107;-73
2021/08/26 10:58:28;;;;;;;37.10;26.05;;;12.90;98.00;;;;;;5075361;28;20036;-73
2021/08/26 11:01:00;;;;;;;36.40;25.80;;;12.80;97.80;;;;;;5076170;28;20412;-73
2021/08/26 11:03:35;;;;;;;38.15;24.98;;;12.80;97.80;;;;;;5074999;28;20085;-73
2021/08/26 11:06:01;;;;;;;39.83;26.63;;;12.70;98.00;;;;;;5075692;28;20338;-73
2021/08/26 11:08:29;;;;;;;38.38;25.88;;;12.60;97.20;;;;;;5075315;28;20074;-73
2021/08/26 11:10:56;;;;;;;34.35;23.50;;;12.70;97.40;;;;;;5074212;28;20024;-74
2021/08/26 11:13:29;;;;;;;37.60;25.08;;;12.70;97.50;;;;;;5075396;28;20024;-73
2021/08/26 11:15:56;;;;;;;34.87;24.10;;;12.70;97.20;;;;;;5074643;28;20031;-73
2021/08/26 11:18:30;;;;;;;34.00;23.42;;;12.80;96.70;;;;;;5066564;28;20433;-74
2021/08/26 11:20:57;;;;;;;31.08;20.23;;;12.90;97.00;;;;;;5062476;28;20040;-73
2021/08/26 11:23:48;;;;;;;28.27;20.67;;;12.80;97.70;;;;;;5075666;28;20444;-73
2021/08/26 11:26:51;;;;;;;24.15;17.25;;;12.90;97.30;;;;;;5074944;28;20048;-73
2021/08/26 11:29:23;;;;;;;27.17;18.45;;;13.10;98.00;;;;;;5056196;28;20025;-73
2021/08/26 11:31:54;;;;;;;22.67;14.80;;;13.10;98.00;;;;;;5073936;28;20108;-73
2021/08/26 11:34:21;;;;;;;14.48;10.70;;;13.00;98.00;;;;;;5075881;28;20107;-73
2021/08/26 11:37:09;;;;;;;14.50;9.10;;;12.90;98.00;;;;;;5073810;28;20063;-73
2021/08/26 11:40:00;;;;;;;16.65;11.48;;;12.90;98.00;;;;;;5072826;28;20023;-73
2021/08/26 11:42:41;;;;;;;12.43;8.48;;;12.90;98.00;;;;;;5074988;28;20029;-73
2021/08/26 11:45:08;;;;;;;12.43;8.63;;;12.80;97.50;;;;;;5074472;28;20549;-73
2021/08/26 11:47:36;;;;;;;11.38;8.45;;;12.80;97.50;;;;;;5065630;28;20032;-73
2021/08/26 11:50:15;;;;;;;10.55;7.93;;;12.90;98.00;;;;;;5072270;28;20077;-73
2021/08/26 11:52:41;;;;;;;10.88;7.18;;;13.10;98.00;;;;;;5074736;28;20032;-73
2021/08/26 11:55:07;;;;;;;12.30;8.98;;;13.10;98.00;;;;;;5074323;28;20028;-73
2021/08/26 11:57:33;;;;;;;11.43;8.10;;;13.10;98.00;;;;;;5073537;28;20036;-73
2021/08/26 12:00:08;;;;;;;11.25;8.32;;;13.10;98.00;;;;;;5074516;28;20013;-73
2021/08/26 12:02:36;;;;;;;23.58;9.88;;;13.10;98.00;;;;;;5076076;28;20024;-73
2021/08/26 12:05:07;;;;;;;16.98;8.45;;;13.20;98.00;;;;;;5073517;28;20041;-73
2021/08/26 12:07:36;;;;;;;14.00;8.20;;;13.10;98.00;;;;;;5055657;28;20372;-73
2021/08/26 12:10:11;;;;;;;12.52;8.73;;;13.20;98.00;;;;;;5068748;28;20050;-73
2021/08/26 12:12:47;;;;;;;9.68;5.28;;;13.10;98.00;;;;;;5074411;28;20420;-73
2021/08/26 12:15:28;;;;;;;8.70;6.20;;;13.00;98.00;;;;;;5062948;28;20083;-73
2021/08/26 12:17:59;;;;;;;9.85;7.22;;;12.90;98.00;;;;;;5068439;28;20020;-73
2021/08/26 12:20:26;;;;;;;9.10;6.30;;;12.90;98.00;;;;;;5067179;28;20032;-73
2021/08/26 12:22:56;;;;;;;10.95;6.70;;;13.00;98.00;;;;;;5074459;28;20048;-73
2021/08/26 12:25:34;;;;;;;10.00;7.15;;;13.00;98.00;;;;;;5065605;28;20029;-73
2021/08/26 12:28:03;;;;;;;7.60;5.60;;;13.20;98.00;;;;;;5077249;28;20020;-73
2021/08/26 12:30:30;;;;;;;9.65;6.30;;;13.20;98.00;;;;;;5077572;28;20048;-72
2021/08/26 12:33:25;;;;;;;9.30;6.20;;;13.10;98.00;;;;;;5077985;28;20048;-72
2021/08/26 12:35:58;;;;;;;9.32;6.03;;;13.00;98.00;;;;;;5067557;28;20067;-73
2021/08/26 12:38:42;;;;;;;10.70;6.68;;;13.00;98.00;;;;;;5075049;28;20029;-74
2021/08/26 12:41:19;;;;;;;10.73;6.95;;;12.90;98.00;;;;;;5074234;28;20025;-74
2021/08/26 12:43:46;;;;;;;10.98;8.18;;;12.80;98.00;;;;;;5076728;28;20325;-74
2021/08/26 12:46:19;;;;;;;10.30;7.68;;;12.70;98.00;;;;;;5077416;28;20111;-73
2021/08/26 12:48:46;;;;;;;11.68;7.38;;;12.60;98.00;;;;;;5076705;28;20028;-74
2021/08/26 12:51:15;;;;;;;11.90;7.72;;;12.60;98.00;;;;;;5077539;28;20090;-73
2021/08/26 12:54:05;;;;;;;11.63;7.53;;;12.60;98.00;;;;;;5077209;28;20421;-73
2021/08/26 12:56:42;;;;;;;11.13;7.05;;;12.60;97.80;;;;;;5073982;28;20024;-72
2021/08/26 12:59:10;;;;;;;9.57;6.05;;;12.70;98.00;;;;;;5071543;28;20044;-72
2021/08/26 13:01:38;;;;;;;12.82;6.45;;;12.70;97.90;;;;;;5077367;28;20044;-73
2021/08/26 13:04:16;;;;;;;12.00;5.80;;;12.80;98.00;;;;;;5072003;28;20033;-72
2021/08/26 13:06:51;;;;;;;11.80;5.32;;;12.80;98.00;;;;;;5064214;28;20029;-73
2021/08/26 13:09:30;;;;;;;21.70;6.70;;;12.80;98.00;;;;;;5058513;28;20029;-73
2021/08/26 13:12:05;;;;;;;14.68;5.97;;;12.80;98.00;;;;;;5058575;28;20028;-73
2021/08/26 13:14:34;;;;;;;18.95;6.13;;;12.80;98.00;;;;;;5070318;28;20421;-73
2021/08/26 13:17:00;;;;;;;11.63;5.88;;;12.70;98.00;;;;;;5071472;28;20020;-72
2021/08/26 13:19:26;;;;;;;15.60;6.25;;;12.70;98.00;;;;;;5073675;28;20020;-72
2021/08/26 13:21:52;;;;;;;12.70;6.00;;;12.70;98.00;;;;;;5068569;28;20016;-72
2021/08/26 13:24:19;;;;;;;13.45;6.65;;;12.70;98.00;;;;;;5071773;28;20029;-72
2021/08/26 13:26:47;;;;;;;12.23;6.00;;;12.70;98.00;;;;;;5073221;28;20017;-73
2021/08/26 13:29:13;;;;;;;11.50;6.25;;;12.70;98.00;;;;;;5076524;28;20032;-72
2021/08/26 13:31:39;;;;;;;11.73;6.20;;;12.60;98.00;;;;;;5076873;28;20020;-72
2021/08/26 13:34:05;;;;;;;11.90;6.70;;;12.50;98.00;;;;;;5076926;28;20115;-72
2021/08/26 13:36:31;;;;;;;11.77;6.28;;;12.60;98.00;;;;;;5076632;28;20038;-72
2021/08/26 13:38:57;;;;;;;12.32;6.88;;;12.60;98.00;;;;;;5074640;28;20025;-72
2021/08/26 13:41:23;;;;;;;11.07;5.95;;;12.50;98.00;;;;;;5074294;28;20326;-72
2021/08/26 13:43:49;;;;;;;10.27;6.10;;;12.40;98.00;;;;;;5077491;28;20023;-72
2021/08/26 13:46:15;;;;;;;9.57;5.63;;;12.40;98.00;;;;;;5076079;28;21414;-72
2021/08/26 13:48:44;;;;;;;10.38;4.93;;;12.40;98.00;;;;;;5076675;28;20422;-73
2021/08/26 13:51:10;;;;;;;12.55;4.90;;;12.40;98.00;;;;;;5077334;28;20048;-72
2021/08/26 13:53:36;;;;;;;10.27;4.63;;;12.50;98.00;;;;;;5076828;28;20409;-72
2021/08/26 13:56:01;;;;;;;7.90;4.60;;;12.60;98.00;;;;;;5073574;28;20120;-73
2021/08/26 13:58:27;;;;;;;9.27;4.43;;;12.80;98.00;;;;;;5077220;28;20096;-72
2021/08/26 14:00:52;;;;;;;12.27;5.22;;;13.00;98.00;;;;;;5076254;28;20089;-72
2021/08/26 14:03:18;;;;;;;12.48;6.85;;;12.90;98.00;;;;;;5076540;28;20044;-73
2021/08/26 14:05:44;;;;;;;12.93;7.05;;;12.90;98.00;;;;;;5075477;28;20049;-73
2021/08/26 14:08:10;;;;;;;14.10;6.57;;;12.80;98.00;;;;;;5075354;28;20028;-72
2021/08/26 14:10:35;;;;;;;13.25;5.85;;;13.00;98.00;;;;;;5074289;28;20454;-73
2021/08/26 14:13:04;;;;;;;11.95;5.78;;;13.20;98.00;;;;;;5072485;28;20032;-72
2021/08/26 14:15:30;;;;;;;11.88;6.05;;;13.30;98.00;;;;;;5076800;28;20052;-71
2021/08/26 14:17:56;;;;;;;9.65;5.15;;;13.50;98.00;;;;;;5076826;28;20027;-72
2021/08/26 14:20:22;;;;;;;13.57;6.72;;;13.60;98.00;;;;;;5068677;28;20111;-72
2021/08/26 14:22:47;;;;;;;11.32;6.03;;;13.70;98.00;;;;;;5068690;28;20394;-72
2021/08/26 14:25:13;;;;;;;9.93;4.90;;;13.70;98.00;;;;;;5064190;28;20020;-72
2021/08/26 14:27:39;;;;;;;10.07;5.85;;;13.80;98.00;;;;;;5071906;28;20028;-72
2021/08/26 14:30:06;;;;;;;13.93;6.22;;;13.90;98.00;;;;;;5073731;28;20040;-73
2021/08/26 14:32:32;;;;;;;10.35;5.13;;;14.00;98.00;;;;;;5068588;28;20295;-72
2021/08/26 14:34:58;;;;;;;12.50;5.35;;;14.00;98.00;;;;;;5072383;28;20025;-72
2021/08/26 14:37:24;;;;;;;10.82;5.10;;;14.00;98.00;;;;;;5071363;28;20086;-72
2021/08/26 14:39:54;;;;;;;6.90;4.15;;;14.30;98.00;;;;;;5060458;28;20016;-73
2021/08/26 14:42:19;;;;;;;6.65;3.47;;;14.50;98.00;;;;;;5069156;28;20024;-73
2021/08/26 14:44:45;;;;;;;8.60;4.53;;;14.70;98.00;;;;;;5067371;28;20113;-73
2021/08/26 14:47:16;;;;;;;7.38;3.75;;;14.90;98.00;;;;;;5074732;28;20079;-72
2021/08/26 14:49:45;;;;;;;8.52;4.25;;;14.80;98.00;;;;;;5059798;28;20036;-72
2021/08/26 14:52:10;;;;;;;6.90;3.78;;;15.00;98.00;;;;;;5070953;28;20109;-72
2021/08/26 14:54:36;;;;;;;6.63;2.92;;;15.50;98.00;;;;;;5075103;28;20100;-72
2021/08/26 14:57:04;;;;;;;7.25;3.70;;;15.80;97.10;;;;;;5067966;28;20044;-72
2021/08/26 14:59:30;;;;;;;8.40;3.25;;;16.00;97.80;;;;;;5071833;28;20115;-72
2021/08/26 15:01:56;;;;;;;8.88;3.75;;;16.20;96.50;;;;;;5068532;28;20028;-72
2021/08/26 15:04:22;;;;;;;7.32;4.00;;;16.40;95.60;;;;;;5073684;28;20040;-72
2021/08/26 15:06:48;;;;;;;6.75;3.42;;;16.20;94.50;;;;;;5071266;28;20028;-72
2021/08/26 15:09:13;;;;;;;8.00;3.92;;;16.10;95.10;;;;;;5071353;28;20107;-72
2021/08/26 15:11:39;;;;;;;6.68;3.28;;;17.00;93.70;;;;;;5074092;28;20029;-72
2021/08/26 15:14:04;;;;;;;8.50;3.15;;;18.50;91.80;;;;;;5073812;28;20025;-74
2021/08/26 15:16:30;;;;;;;6.50;3.00;;;19.60;85.70;;;;;;5069361;28;20452;-72
2021/08/26 15:18:56;;;;;;;6.07;2.88;;;20.30;84.20;;;;;;5066194;28;21589;-72
2021/08/26 15:21:21;;;;;;;6.13;2.67;;;20.70;83.30;;;;;;5071633;28;20032;-72
2021/08/26 15:23:47;;;;;;;6.25;2.47;;;20.80;82.10;;;;;;5070387;28;20178;-73
2021/08/26 15:26:13;;;;;;;5.25;2.67;;;20.50;82.50;;;;;;5064825;28;20029;-72
2021/08/26 15:28:39;;;;;;;6.55;3.35;;;20.00;82.20;;;;;;5065824;28;20043;-72
2021/08/26 15:31:04;;;;;;;7.35;3.22;;;19.50;84.60;;;;;;5071516;28;20032;-72
2021/08/26 15:33:30;;;;;;;6.55;3.08;;;19.30;85.70;;;;;;5068320;28;20024;-72
2021/08/26 15:35:55;;;;;;;5.07;2.65;;;19.50;84.60;;;;;;5070500;28;20086;-72
2021/08/26 15:38:21;;;;;;;5.63;2.80;;;19.80;84.00;;;;;;5074375;28;20313;-72
2021/08/26 15:40:47;;;;;;;7.10;3.45;;;19.90;82.50;;;;;;5072540;28;20021;-72
2021/08/26 15:43:14;;;;;;;6.18;3.00;;;19.80;81.30;;;;;;5074964;28;20071;-72
2021/08/26 15:45:45;;;;;;;6.10;3.17;;;19.60;82.40;;;;;;5073940;28;20036;-72
2021/08/26 15:48:14;;;;;;;6.95;2.67;;;19.40;82.20;;;;;;5074412;28;20036;-73
2021/08/26 15:50:43;;;;;;;5.25;2.70;;;19.50;84.60;;;;;;5067503;28;20032;-73
2021/08/26 15:53:15;;;;;;;6.38;2.60;;;19.10;83.80;;;;;;5071664;28;20028;-73
2021/08/26 15:55:49;;;;;;;9.35;3.33;;;19.20;86.50;;;;;;5067234;28;20364;-73